Terminal Aerodrome Forecast
Issued by NWS

Home | Current Version | Previous Version | Text Only | Print | Product List | Glossary On
Versions: 1 2 3 4 5 6 7 8 9 10 11 12 13 14 15 16
000
FTUS42 KJAX 272300
TAFCRG
TAF
KCRG 272330Z 2800/2824 26007KT P6SM SCT250
     FM281400 25011G16KT P6SM SCT030 SCT250
     FM282200 26012G20KT P6SM VCTS BKN035CB BKN250
      TEMPO 2822/2824 3SM -TSRA OVC030CB=

USA.gov is the U.S. government's official web portal to all federal, state and local government web resources and services.